Time;durP1;ratioP1;P1;durP2;ratioP2;P2;SDS_P1;SDS_P2;PMS_P1;PMS_P2;Temp;Humidity;BMP_temperature;BMP_pressure;BME280_temperature;BME280_humidity;BME280_pressure;Samples;Min_cycle;Max_cycle;Signal;HPM_P1;HPM_P2
2022/03/27 00:00:18;;;;;;;18.13;9.30;;;;;;;10.31;44.94;97767.13;5071381;28;20391;-69
2022/03/27 00:02:43;;;;;;;15.83;9.27;;;;;;;10.19;44.96;97770.56;5071792;28;20423;-70
2022/03/27 00:05:10;;;;;;;18.00;9.93;;;;;;;10.67;44.73;97773.78;5071474;28;20380;-69
2022/03/27 00:07:37;;;;;;;17.77;10.02;;;;;;;10.63;44.82;97772.59;5070978;28;20400;-70
2022/03/27 00:10:03;;;;;;;19.25;9.80;;;;;;;10.69;44.60;97775.22;5072678;28;20444;-70
2022/03/27 00:12:29;;;;;;;16.40;9.95;;;;;;;10.65;44.34;97766.13;5074896;28;20928;-69
2022/03/27 00:14:54;;;;;;;18.13;9.77;;;;;;;10.65;44.43;97762.69;5074860;28;20479;-68
2022/03/27 00:17:19;;;;;;;18.30;9.93;;;;;;;10.53;44.64;97764.31;5073027;28;20415;-69
2022/03/27 00:19:45;;;;;;;18.63;9.63;;;;;;;10.55;44.62;97767.53;5074607;28;21200;-70
2022/03/27 00:22:10;;;;;;;17.15;9.50;;;;;;;10.60;44.83;97770.34;5074596;28;20388;-70
2022/03/27 00:24:36;;;;;;;23.73;10.60;;;;;;;10.68;44.37;97764.91;5075129;28;20486;-70
2022/03/27 00:27:01;;;;;;;23.08;10.88;;;;;;;10.61;44.33;97764.09;5073181;28;20427;-70
2022/03/27 00:29:27;;;;;;;19.43;9.93;;;;;;;10.59;44.92;97759.06;5074497;28;20395;-70
2022/03/27 00:31:53;;;;;;;19.40;10.85;;;;;;;10.58;44.56;97757.47;5056267;28;20430;-70
2022/03/27 00:34:21;;;;;;;22.33;11.73;;;;;;;10.64;44.46;97761.91;5074998;28;20421;-70
2022/03/27 00:36:46;;;;;;;22.10;12.13;;;;;;;10.73;44.48;97752.81;5062864;28;20397;-70
2022/03/27 00:39:12;;;;;;;22.20;11.67;;;;;;;10.68;44.03;97755.25;5074612;28;20400;-71
2022/03/27 00:41:38;;;;;;;20.37;11.27;;;;;;;10.65;44.16;97753.00;5062589;28;20400;-71
2022/03/27 00:44:04;;;;;;;22.42;11.18;;;;;;;10.55;44.50;97757.06;5073055;28;20399;-71
2022/03/27 00:46:29;;;;;;;20.90;11.15;;;;;;;10.50;45.06;97746.38;5074325;28;20388;-69
2022/03/27 00:48:55;;;;;;;20.50;9.87;;;;;;;10.37;44.95;97744.53;5075123;28;20798;-70
2022/03/27 00:51:20;;;;;;;17.45;9.82;;;;;;;10.43;44.84;97748.97;5074509;28;20384;-70
2022/03/27 00:53:45;;;;;;;16.13;9.40;;;;;;;10.61;44.33;97754.44;5074511;28;20938;-70
2022/03/27 00:56:11;;;;;;;22.08;10.23;;;;;;;10.71;44.55;97748.78;5074915;28;20388;-70
2022/03/27 00:58:37;;;;;;;18.40;9.37;;;;;;;10.63;44.80;97756.84;5074483;28;20454;-71
2022/03/27 01:01:11;;;;;;;20.58;10.20;;;;;;;10.50;44.82;97755.03;5074290;28;20391;-70
2022/03/27 01:03:37;;;;;;;20.48;9.82;;;;;;;10.39;45.10;97759.06;5074103;28;20400;-67
2022/03/27 01:06:03;;;;;;;16.52;9.93;;;;;;;10.30;45.52;97757.66;5073070;28;20387;-69
2022/03/27 01:11:18;;;;;;;19.83;10.15;;;;;;;10.33;45.55;97738.91;5073757;28;20752;-69
2022/03/27 01:13:46;;;;;;;17.65;10.15;;;;;;;10.43;45.30;97739.31;5073433;28;20412;-69
2022/03/27 01:16:16;;;;;;;19.05;10.30;;;;;;;10.38;45.54;97749.59;5073655;28;20384;-69
2022/03/27 01:18:42;;;;;;;22.00;10.38;;;;;;;10.28;45.20;97741.31;5073350;28;20412;-68
2022/03/27 01:21:08;;;;;;;20.08;10.27;;;;;;;10.17;45.75;97736.69;5073334;28;20437;-69
2022/03/27 01:23:34;;;;;;;20.30;10.75;;;;;;;10.01;46.08;97743.09;5072277;28;20938;-68
2022/03/27 01:26:00;;;;;;;21.05;10.88;;;;;;;9.95;46.34;97738.63;5055066;28;20431;-69
2022/03/27 01:28:25;;;;;;;22.20;10.70;;;;;;;9.97;46.57;97738.44;5073934;28;20400;-70
2022/03/27 01:30:51;;;;;;;20.42;10.77;;;;;;;9.92;46.46;97736.41;5073184;28;20396;-69
2022/03/27 01:33:16;;;;;;;19.50;10.07;;;;;;;9.95;46.34;97735.22;5073112;28;20418;-69
2022/03/27 01:35:42;;;;;;;18.88;10.38;;;;;;;9.87;46.55;97736.19;5073369;28;20867;-70
2022/03/27 01:38:07;;;;;;;21.03;11.10;;;;;;;9.89;46.46;97736.00;5073549;28;20453;-69
2022/03/27 01:40:33;;;;;;;19.92;10.75;;;;;;;9.73;47.01;97736.38;5055868;28;20387;-69
2022/03/27 01:42:58;;;;;;;18.67;10.23;;;;;;;9.40;47.41;97731.84;5055591;28;20384;-68
2022/03/27 01:45:25;;;;;;;19.67;10.77;;;;;;;9.50;47.41;97731.47;5073621;28;20396;-68
2022/03/27 01:47:50;;;;;;;18.30;10.70;;;;;;;9.53;47.17;97731.88;5072724;28;20974;-69
2022/03/27 01:50:16;;;;;;;19.90;11.30;;;;;;;9.46;47.60;97725.03;5072879;28;20471;-70
2022/03/27 01:52:41;;;;;;;19.47;10.80;;;;;;;9.56;47.38;97728.06;5072979;28;20399;-70
2022/03/27 01:55:09;;;;;;;21.37;11.23;;;;;;;9.72;47.06;97724.28;5073406;28;20420;-69
2022/03/27 01:57:34;;;;;;;20.70;11.33;;;;;;;9.54;47.31;97728.25;5072863;28;20423;-71
2022/03/27 02:00:00;;;;;;;18.70;10.53;;;;;;;9.44;47.50;97727.81;5073106;28;20391;-70
2022/03/27 02:02:25;;;;;;;21.53;10.70;;;;;;;9.43;47.44;97726.22;5073119;28;20410;-70
2022/03/27 02:04:52;;;;;;;20.90;10.67;;;;;;;9.25;48.14;97725.91;5072998;28;20423;-70
2022/03/27 02:07:22;;;;;;;18.65;10.48;;;;;;;9.61;47.10;97723.06;5071082;28;20407;-69
2022/03/27 02:09:50;;;;;;;19.13;10.48;;;;;;;9.45;47.68;97720.78;5071663;28;20441;-69
2022/03/27 02:12:16;;;;;;;24.02;11.10;;;;;;;9.59;47.57;97725.03;5055054;28;20398;-69
2022/03/27 02:14:41;;;;;;;25.20;11.40;;;;;;;9.51;47.28;97725.22;5072750;28;20868;-70
2022/03/27 02:17:08;;;;;;;19.07;11.07;;;;;;;9.43;47.62;97722.78;5072683;28;20419;-69
2022/03/27 02:19:34;;;;;;;20.33;10.70;;;;;;;9.51;47.76;97718.19;5071386;28;20387;-70
2022/03/27 02:22:00;;;;;;;25.40;11.27;;;;;;;9.46;47.68;97714.56;5071411;28;20452;-69
2022/03/27 02:24:25;;;;;;;18.43;9.87;;;;;;;9.34;47.86;97713.50;5072875;28;20459;-69
2022/03/27 02:26:51;;;;;;;19.27;10.67;;;;;;;9.30;47.68;97723.56;5072453;28;20755;-71
2022/03/27 02:29:17;;;;;;;18.05;10.35;;;;;;;9.07;48.15;97712.59;5072110;28;20404;-70
2022/03/27 02:31:44;;;;;;;20.02;10.80;;;;;;;9.46;47.23;97722.41;5072131;28;20723;-70
2022/03/27 02:34:09;;;;;;;18.90;10.65;;;;;;;9.36;47.50;97720.13;5067728;28;20437;-70
2022/03/27 02:36:35;;;;;;;21.33;10.60;;;;;;;9.07;48.31;97723.03;5061258;28;20407;-70
2022/03/27 02:39:00;;;;;;;21.73;10.90;;;;;;;9.22;48.05;97717.66;5072340;28;20407;-69
2022/03/27 02:41:26;;;;;;;19.83;10.65;;;;;;;9.02;48.24;97721.00;5072232;28;20462;-72
2022/03/27 02:43:51;;;;;;;18.17;10.40;;;;;;;9.25;47.80;97720.69;5054151;28;20467;-70
2022/03/27 02:46:16;;;;;;;17.80;10.27;;;;;;;9.17;47.88;97720.88;5072137;28;20925;-70
2022/03/27 02:48:42;;;;;;;18.33;10.33;;;;;;;8.98;48.61;97719.75;5071976;28;20484;-70
2022/03/27 02:51:07;;;;;;;21.90;10.43;;;;;;;9.05;48.64;97730.25;5071895;28;20407;-70
2022/03/27 02:53:33;;;;;;;20.80;10.93;;;;;;;9.10;48.49;97727.88;5068877;28;20418;-69
2022/03/27 02:55:59;;;;;;;20.53;10.70;;;;;;;9.22;48.53;97725.53;5070933;28;20400;-68
2022/03/27 02:58:24;;;;;;;17.87;10.37;;;;;;;8.95;48.80;97719.34;5044717;28;20400;-70
2022/03/27 03:00:49;;;;;;;21.95;10.68;;;;;;;8.99;49.03;97717.97;5072508;28;20376;-69
2022/03/27 03:03:15;;;;;;;18.77;10.30;;;;;;;8.86;49.36;97718.69;5072261;28;20598;-71
2022/03/27 03:05:42;;;;;;;22.05;10.63;;;;;;;8.87;49.46;97724.72;5068602;28;20419;-70
2022/03/27 03:08:11;;;;;;;18.15;9.50;;;;;;;8.74;49.48;97721.06;5071809;28;20404;-69
2022/03/27 03:10:38;;;;;;;18.23;10.10;;;;;;;8.42;50.47;97720.81;5072027;28;20406;-69
2022/03/27 03:13:05;;;;;;;21.83;10.68;;;;;;;8.55;50.38;97719.09;5071484;28;20467;-69
2022/03/27 03:15:30;;;;;;;20.37;10.33;;;;;;;8.57;50.48;97729.38;5053709;28;20744;-70
2022/03/27 03:17:56;;;;;;;17.27;10.00;;;;;;;8.56;50.63;97718.13;5071999;28;20415;-69
2022/03/27 03:20:22;;;;;;;20.77;10.50;;;;;;;8.61;50.26;97714.91;5071844;28;20411;-70
2022/03/27 03:22:48;;;;;;;20.73;10.23;;;;;;;8.46;50.71;97709.81;5070295;28;20902;-70
2022/03/27 03:25:13;;;;;;;19.58;10.50;;;;;;;8.57;50.71;97719.72;5071811;28;20433;-70
2022/03/27 03:27:39;;;;;;;17.80;9.93;;;;;;;8.56;50.59;97712.06;5071975;28;20802;-70
2022/03/27 03:30:06;;;;;;;20.00;9.80;;;;;;;8.66;50.33;97718.56;5070982;28;20388;-71
2022/03/27 03:32:34;;;;;;;17.00;9.20;;;;;;;8.49;50.87;97719.88;5071791;28;20372;-71
2022/03/27 03:35:00;;;;;;;21.85;9.90;;;;;;;8.63;50.39;97718.97;5070775;28;20799;-70
2022/03/27 03:37:25;;;;;;;20.77;10.57;;;;;;;8.46;51.00;97714.22;5053932;28;20411;-69
2022/03/27 03:39:50;;;;;;;16.77;10.17;;;;;;;8.38;51.30;97717.78;5071716;28;20383;-70
2022/03/27 03:42:16;;;;;;;22.00;10.10;;;;;;;8.39;51.31;97719.38;5071670;28;20388;-70
2022/03/27 03:44:43;;;;;;;19.38;9.88;;;;;;;8.57;50.82;97717.13;5071460;28;20487;-69
2022/03/27 03:47:09;;;;;;;16.67;9.93;;;;;;;8.69;50.36;97720.00;5074994;28;20552;-71
2022/03/27 03:49:35;;;;;;;19.50;10.00;;;;;;;8.76;50.30;97721.66;5074803;28;20391;-69
2022/03/27 03:52:00;;;;;;;18.33;9.60;;;;;;;8.90;49.80;97719.94;5075691;28;20388;-69
2022/03/27 03:54:26;;;;;;;17.17;9.33;;;;;;;8.76;50.28;97719.03;5076553;28;20423;-70
2022/03/27 03:56:51;;;;;;;18.90;9.63;;;;;;;8.87;49.87;97724.72;5076716;28;20395;-70
2022/03/27 03:59:17;;;;;;;18.05;9.68;;;;;;;8.89;49.81;97717.50;5077199;28;20483;-70
2022/03/27 04:01:43;;;;;;;21.90;10.00;;;;;;;8.85;49.88;97722.31;5074173;28;20388;-72
2022/03/27 04:04:08;;;;;;;15.77;9.43;;;;;;;8.66;50.51;97721.19;5075252;28;20397;-71
2022/03/27 04:06:34;;;;;;;14.93;9.93;;;;;;;8.80;50.62;97721.28;5077197;28;20387;-69
2022/03/27 04:08:59;;;;;;;18.35;9.85;;;;;;;8.59;51.06;97724.75;5078102;28;20375;-69
2022/03/27 04:11:24;;;;;;;16.80;9.73;;;;;;;8.73;50.79;97722.06;5077226;28;20391;-69
2022/03/27 04:13:50;;;;;;;18.60;10.40;;;;;;;8.37;51.51;97717.94;5060314;28;20458;-70
2022/03/27 04:16:15;;;;;;;15.57;9.40;;;;;;;8.23;52.11;97714.41;5077037;28;20376;-71
2022/03/27 04:18:41;;;;;;;18.55;9.85;;;;;;;8.32;51.82;97715.91;5058981;28;20906;-70
2022/03/27 04:21:07;;;;;;;17.80;10.00;;;;;;;8.15;52.36;97709.31;5077002;28;20879;-69
2022/03/27 04:23:33;;;;;;;19.75;10.13;;;;;;;8.25;52.41;97717.63;5076912;28;20388;-70
2022/03/27 04:25:59;;;;;;;17.30;10.02;;;;;;;8.18;52.27;97711.56;5076722;28;20473;-69
2022/03/27 04:28:24;;;;;;;19.42;9.68;;;;;;;8.21;52.20;97711.16;5076142;28;20390;-69
2022/03/27 04:30:50;;;;;;;18.15;10.13;;;;;;;8.34;51.98;97711.31;5075256;28;20376;-68
2022/03/27 04:33:16;;;;;;;16.77;9.87;;;;;;;8.06;52.50;97708.66;5075505;28;20731;-70
2022/03/27 04:35:42;;;;;;;15.30;9.40;;;;;;;7.91;53.15;97716.53;5075697;28;20387;-70
2022/03/27 04:38:08;;;;;;;17.35;9.80;;;;;;;8.09;52.68;97720.50;5057604;28;20430;-70
2022/03/27 04:40:35;;;;;;;18.57;10.17;;;;;;;8.10;52.66;97715.09;5074866;28;20841;-69
2022/03/27 04:43:00;;;;;;;19.80;11.00;;;;;;;8.46;51.66;97722.88;5075477;28;20375;-70
2022/03/27 04:45:26;;;;;;;17.70;10.80;;;;;;;8.48;51.90;97715.63;5075183;28;20388;-69
2022/03/27 04:47:51;;;;;;;19.17;10.90;;;;;;;8.45;51.90;97721.25;5075004;28;20701;-69
2022/03/27 04:50:17;;;;;;;17.30;9.93;;;;;;;8.42;52.07;97723.41;5057372;28;20729;-71
2022/03/27 04:52:42;;;;;;;16.38;10.05;;;;;;;8.56;52.09;97728.56;5075228;28;20388;-70
2022/03/27 04:55:08;;;;;;;17.70;10.20;;;;;;;8.18;52.69;97725.44;5057672;28;20392;-71
2022/03/27 04:57:39;;;;;;;17.45;9.95;;;;;;;8.31;52.59;97728.16;5073900;28;20415;-70
2022/03/27 05:00:14;;;;;;;18.67;10.50;;;;;;;8.47;52.18;97727.06;5074525;28;20476;-71
2022/03/27 05:02:41;;;;;;;19.98;10.50;;;;;;;8.46;51.92;97729.91;5056233;28;20401;-71
2022/03/27 05:05:10;;;;;;;20.63;10.00;;;;;;;8.39;52.04;97723.81;5054651;28;21011;-69
2022/03/27 05:07:37;;;;;;;17.52;9.95;;;;;;;8.43;52.23;97732.88;5074378;28;20390;-70
2022/03/27 05:10:04;;;;;;;19.88;10.13;;;;;;;8.07;53.14;97735.56;5074184;28;20407;-69
2022/03/27 05:12:30;;;;;;;22.88;11.00;;;;;;;7.76;53.91;97728.03;5073869;28;20390;-71
2022/03/27 05:14:56;;;;;;;20.02;10.65;;;;;;;7.54;54.91;97727.19;5073969;28;20857;-70
2022/03/27 05:17:21;;;;;;;18.10;9.93;;;;;;;7.12;56.17;97727.91;5056324;28;20403;-67
2022/03/27 05:19:46;;;;;;;18.98;11.02;;;;;;;7.08;55.97;97729.22;5074108;28;20383;-70
2022/03/27 05:22:13;;;;;;;19.67;10.53;;;;;;;7.19;55.98;97730.59;5073790;28;20402;-69
2022/03/27 05:24:38;;;;;;;21.30;10.45;;;;;;;7.34;55.30;97728.78;5056142;28;20879;-70
2022/03/27 05:27:04;;;;;;;15.40;9.70;;;;;;;7.11;56.01;97731.50;5055669;28;20443;-69
2022/03/27 05:29:29;;;;;;;18.38;10.02;;;;;;;7.13;56.17;97732.13;5073590;28;20445;-70
2022/03/27 05:31:57;;;;;;;18.87;10.07;;;;;;;7.04;57.00;97730.59;5055342;28;20418;-69
2022/03/27 05:34:23;;;;;;;19.80;11.00;;;;;;;7.65;55.14;97716.28;5074038;28;20386;-70
2022/03/27 05:36:49;;;;;;;22.70;12.20;;;;;;;7.94;53.87;97729.22;5073720;28;20376;-70
2022/03/27 05:39:14;;;;;;;23.23;11.77;;;;;;;8.22;52.73;97729.28;5073538;28;20458;-70
2022/03/27 05:41:39;;;;;;;22.90;11.83;;;;;;;8.32;52.41;97734.19;5073141;28;20384;-70
2022/03/27 05:44:05;;;;;;;23.70;11.97;;;;;;;8.45;52.29;97733.50;5073758;28;20934;-71
2022/03/27 05:46:30;;;;;;;19.17;11.33;;;;;;;8.22;52.83;97737.09;5073953;28;20371;-70
2022/03/27 05:48:56;;;;;;;19.03;10.90;;;;;;;7.98;53.83;97742.69;5055859;28;20409;-70
2022/03/27 05:51:21;;;;;;;22.53;11.60;;;;;;;7.95;53.72;97750.91;5073368;28;20376;-69
2022/03/27 05:53:47;;;;;;;18.47;11.17;;;;;;;8.53;53.24;97757.66;5073489;28;20399;-70
2022/03/27 05:56:12;;;;;;;17.07;10.53;;;;;;;8.59;53.39;97756.91;5073602;28;20415;-71
2022/03/27 05:58:38;;;;;;;24.00;11.07;;;;;;;8.95;53.42;97758.56;5055284;28;20408;-73
2022/03/27 06:01:04;;;;;;;19.67;11.63;;;;;;;9.18;52.46;97746.84;5072823;28;20871;-68
2022/03/27 06:03:30;;;;;;;21.88;11.82;;;;;;;9.38;51.74;97749.53;5071592;28;20471;-68
2022/03/27 06:05:55;;;;;;;22.17;11.90;;;;;;;9.38;50.89;97757.38;5073304;28;21062;-70
2022/03/27 06:08:21;;;;;;;19.70;11.07;;;;;;;9.30;50.78;97757.56;5073100;28;20384;-70
2022/03/27 06:10:48;;;;;;;22.33;11.40;;;;;;;9.73;49.97;97755.50;5055222;28;20452;-71
2022/03/27 06:13:14;;;;;;;21.13;11.23;;;;;;;10.21;48.86;97751.00;5055437;28;20886;-70
2022/03/27 06:15:40;;;;;;;21.60;10.82;;;;;;;10.28;48.12;97753.63;5073306;28;20392;-70
2022/03/27 06:18:09;;;;;;;19.75;11.45;;;;;;;10.39;48.77;97753.84;5073631;28;20407;-69
2022/03/27 06:20:35;;;;;;;16.00;10.35;;;;;;;10.37;48.48;97755.03;5055596;28;20443;-70
2022/03/27 06:23:01;;;;;;;19.10;10.73;;;;;;;10.82;47.62;97748.97;5055534;28;20462;-70
2022/03/27 06:25:28;;;;;;;20.53;11.13;;;;;;;10.55;47.31;97759.66;5072442;28;20396;-71
2022/03/27 06:27:55;;;;;;;18.83;10.50;;;;;;;10.20;48.17;97756.41;5055081;28;20971;-69
2022/03/27 06:30:23;;;;;;;19.23;11.27;;;;;;;10.69;47.68;97756.84;5072553;28;20376;-70
2022/03/27 06:32:49;;;;;;;21.40;11.88;;;;;;;10.38;47.60;97762.69;5073007;28;20411;-69
2022/03/27 06:35:16;;;;;;;21.27;11.73;;;;;;;10.45;48.24;97756.66;5073326;28;20520;-70
2022/03/27 06:37:42;;;;;;;23.55;11.98;;;;;;;10.54;48.65;97755.44;5073146;28;20420;-69
2022/03/27 06:40:09;;;;;;;23.58;11.93;;;;;;;10.59;48.43;97760.91;5073444;28;20483;-69
2022/03/27 06:42:35;;;;;;;26.80;12.03;;;;;;;10.88;47.97;97759.63;5073120;28;20411;-70
2022/03/27 06:45:01;;;;;;;21.20;12.10;;;;;;;11.10;48.48;97756.56;5072997;28;20399;-71
2022/03/27 06:47:27;;;;;;;22.35;12.38;;;;;;;11.38;47.64;97755.47;5072942;28;20396;-70
2022/03/27 06:49:55;;;;;;;22.00;12.43;;;;;;;11.58;47.75;97758.84;5072713;28;20480;-69
2022/03/27 06:52:22;;;;;;;19.80;11.68;;;;;;;12.00;46.58;97758.25;5073124;28;20387;-71
2022/03/27 06:54:48;;;;;;;20.13;11.60;;;;;;;12.23;45.51;97754.25;5073516;28;20517;-71
2022/03/27 06:57:14;;;;;;;21.63;11.57;;;;;;;12.30;45.94;97752.41;5074302;28;20482;-71
2022/03/27 07:05:09;;;;;;;21.10;12.20;;;;;;;12.22;46.74;97760.53;5072446;28;20439;-69
2022/03/27 07:07:35;;;;;;;18.75;12.25;;;;;;;12.34;46.81;97764.91;5072124;28;20811;-68
2022/03/27 07:10:01;;;;;;;21.13;12.15;;;;;;;12.90;45.99;97764.03;5053826;28;20383;-70
2022/03/27 07:12:26;;;;;;;20.60;11.10;;;;;;;12.96;46.24;97763.16;5053392;28;20740;-69
2022/03/27 07:14:52;;;;;;;19.17;11.25;;;;;;;12.99;45.83;97765.34;5053941;28;20851;-70
2022/03/27 07:17:18;;;;;;;16.20;10.33;;;;;;;12.79;45.49;97760.28;5071581;28;20493;-69
2022/03/27 07:19:47;;;;;;;18.05;10.63;;;;;;;13.05;44.49;97759.22;5054514;28;20436;-70
2022/03/27 07:22:14;;;;;;;16.20;10.50;;;;;;;12.88;44.32;97761.59;5075458;28;20482;-69
2022/03/27 07:24:41;;;;;;;17.52;9.90;;;;;;;13.07;44.26;97767.72;5075675;28;20379;-72
2022/03/27 07:27:08;;;;;;;17.65;10.30;;;;;;;13.06;43.64;97765.28;5075074;28;20407;-70
2022/03/27 07:29:35;;;;;;;16.33;10.10;;;;;;;12.62;44.52;97764.47;5057617;28;20383;-70
2022/03/27 07:32:01;;;;;;;20.52;11.80;;;;;;;12.56;46.03;97770.59;5075153;28;20376;-70
2022/03/27 07:34:26;;;;;;;18.77;10.95;;;;;;;12.41;46.20;97773.56;5076221;28;20379;-70
2022/03/27 07:36:51;;;;;;;18.33;11.83;;;;;;;12.14;46.68;97781.84;5057762;28;20388;-70
2022/03/27 07:39:17;;;;;;;22.10;11.63;;;;;;;12.50;46.13;97784.59;5075137;28;20557;-70
2022/03/27 07:41:42;;;;;;;20.13;11.77;;;;;;;12.76;45.57;97781.75;5075446;28;20478;-70
2022/03/27 07:44:08;;;;;;;17.60;11.90;;;;;;;12.55;46.03;97776.88;5057839;28;20871;-70
2022/03/27 07:46:33;;;;;;;19.20;11.97;;;;;;;12.42;46.31;97787.50;5057887;28;20486;-70
2022/03/27 07:48:59;;;;;;;21.60;12.10;;;;;;;12.56;45.88;97789.00;5057557;28;20416;-71
2022/03/27 07:51:25;;;;;;;20.23;13.37;;;;;;;12.23;46.26;97791.88;5075833;28;20379;-71
2022/03/27 07:53:51;;;;;;;20.58;12.68;;;;;;;11.33;47.37;97795.47;5075167;28;20898;-73
2022/03/27 07:56:17;;;;;;;19.75;12.95;;;;;;;11.29;47.22;97802.16;5075033;28;20387;-72
2022/03/27 07:58:43;;;;;;;21.67;12.50;;;;;;;10.78;48.60;97802.03;5075591;28;20439;-72
2022/03/27 08:01:09;;;;;;;23.07;12.97;;;;;;;10.86;49.02;97795.78;5075213;28;20812;-71
2022/03/27 08:03:38;;;;;;;22.13;12.40;;;;;;;10.90;48.33;97803.03;5073288;28;20465;-73
2022/03/27 08:06:03;;;;;;;22.77;12.70;;;;;;;11.19;48.06;97789.47;5075548;28;20449;-70
2022/03/27 08:08:30;;;;;;;19.63;12.07;;;;;;;11.34;47.72;97789.22;5074308;28;20376;-68
2022/03/27 08:10:56;;;;;;;20.45;11.55;;;;;;;11.47;47.01;97785.75;5070423;28;20372;-69
2022/03/27 08:13:21;;;;;;;21.93;12.37;;;;;;;11.71;46.61;97789.47;5036487;28;20396;-69
2022/03/27 08:15:47;;;;;;;21.58;12.05;;;;;;;11.80;46.69;97794.34;5054224;28;20423;-70
2022/03/27 08:18:13;;;;;;;21.97;12.00;;;;;;;12.28;45.73;97785.97;5054211;28;20512;-69
2022/03/27 08:20:40;;;;;;;19.35;11.65;;;;;;;12.08;46.35;97786.09;5054165;28;20849;-71
2022/03/27 08:23:07;;;;;;;17.48;11.48;;;;;;;12.36;45.82;97783.09;5053999;28;20385;-71
2022/03/27 08:28:31;;;;;;;17.58;10.40;;;;;;;12.44;45.34;97788.09;5016633;28;20401;-70
2022/03/27 08:30:56;;;;;;;20.80;11.05;;;;;;;12.27;45.74;97779.09;5052588;28;20381;-69
2022/03/27 08:33:22;;;;;;;16.57;10.33;;;;;;;12.86;45.07;97789.19;5035879;28;20921;-70
2022/03/27 08:35:47;;;;;;;17.42;10.80;;;;;;;13.13;44.35;97787.13;5053164;28;20510;-72
2022/03/27 08:38:15;;;;;;;16.37;11.00;;;;;;;13.24;44.30;97792.47;5053305;28;20727;-70
2022/03/27 08:40:43;;;;;;;19.77;10.50;;;;;;;12.80;45.11;97790.03;5054176;28;20476;-71
2022/03/27 08:43:14;;;;;;;20.55;10.88;;;;;;;12.92;45.51;97790.94;5036172;28;20504;-69
2022/03/27 08:45:40;;;;;;;17.65;10.07;;;;;;;13.15;45.14;97796.41;5053878;28;20389;-71
2022/03/27 08:48:06;;;;;;;18.13;10.60;;;;;;;13.08;45.55;97800.09;5053623;28;20381;-71
2022/03/27 08:50:44;;;;;;;17.00;11.05;;;;;;;13.03;45.36;97798.13;5053570;28;20483;-70
2022/03/27 08:53:13;;;;;;;17.27;10.88;;;;;;;12.94;45.76;97794.16;5053876;28;20387;-69
2022/03/27 08:55:47;;;;;;;21.77;11.97;;;;;;;12.46;46.55;97802.63;5036216;28;20878;-70
2022/03/27 08:58:13;;;;;;;18.13;10.70;;;;;;;12.65;46.61;97790.34;5053533;28;20856;-74
2022/03/27 09:00:40;;;;;;;16.80;11.30;;;;;;;12.67;46.80;97790.94;5053735;28;20385;-70
2022/03/27 09:03:07;;;;;;;21.50;10.40;;;;;;;12.73;46.35;97792.72;5063175;28;20395;-70
2022/03/27 09:05:37;;;;;;;22.00;11.98;;;;;;;12.93;46.54;97803.88;5077146;28;20504;-70
2022/03/27 09:08:10;;;;;;;18.23;11.82;;;;;;;13.06;46.40;97799.50;5093761;28;20390;-68
2022/03/27 09:10:36;;;;;;;20.37;11.40;;;;;;;12.81;46.71;97794.28;5093424;28;20850;-71
2022/03/27 09:13:03;;;;;;;20.17;11.07;;;;;;;12.91;46.74;97800.66;5093005;28;20733;-71
2022/03/27 09:15:28;;;;;;;18.63;11.38;;;;;;;13.08;46.37;97797.47;5075175;28;20398;-70
2022/03/27 09:17:59;;;;;;;19.20;11.07;;;;;;;13.57;45.66;97801.84;5093460;28;20406;-73
2022/03/27 09:20:46;;;;;;;20.83;10.38;;;;;;;13.08;45.72;97805.38;5093940;28;20421;-70
2022/03/27 09:23:12;;;;;;;19.95;11.00;;;;;;;13.38;45.81;97794.94;5093932;28;20870;-70
2022/03/27 09:25:57;;;;;;;19.40;10.35;;;;;;;13.38;45.72;97800.22;5093339;28;20498;-71
2022/03/27 09:28:37;;;;;;;17.92;10.95;;;;;;;13.45;45.11;97799.13;5093456;28;20505;-71
2022/03/27 09:31:21;;;;;;;15.30;9.85;;;;;;;13.41;45.57;97799.78;5092972;28;20381;-71
2022/03/27 09:33:50;;;;;;;15.50;10.00;;;;;;;13.82;44.48;97797.28;5059490;28;20446;-70
2022/03/27 09:36:41;;;;;;;15.95;10.57;;;;;;;13.76;45.10;97795.53;5093251;28;20726;-71
2022/03/27 09:39:12;;;;;;;15.45;10.10;;;;;;;13.64;45.72;97798.13;5093595;28;20558;-71
2022/03/27 09:41:43;;;;;;;17.45;9.98;;;;;;;13.57;45.48;97796.56;5093719;28;20479;-71
2022/03/27 09:44:14;;;;;;;17.50;10.32;;;;;;;13.94;44.55;97787.59;5093153;28;20382;-71
2022/03/27 09:47:10;;;;;;;15.23;9.90;;;;;;;13.72;44.72;97789.91;5092809;28;20920;-70
2022/03/27 09:49:37;;;;;;;15.43;9.93;;;;;;;13.64;45.34;97794.69;5092783;28;20465;-69
2022/03/27 09:52:16;;;;;;;17.17;10.07;;;;;;;13.66;45.00;97784.69;5074583;28;20391;-70
2022/03/27 09:54:44;;;;;;;17.27;10.73;;;;;;;13.77;44.78;97785.78;5092922;28;20793;-70
2022/03/27 09:57:39;;;;;;;17.50;10.52;;;;;;;14.02;44.67;97783.84;5049158;28;20389;-70
2022/03/27 10:00:19;;;;;;;16.47;10.10;;;;;;;14.33;44.33;97773.03;5052343;28;20389;-70
2022/03/27 10:02:49;;;;;;;18.25;11.10;;;;;;;14.12;44.23;97784.91;5063668;28;20383;-70
2022/03/27 10:05:17;;;;;;;14.90;10.18;;;;;;;13.87;44.56;97783.44;5072340;28;20423;-69
2022/03/27 10:07:44;;;;;;;17.43;10.33;;;;;;;14.11;44.16;97780.66;5072642;28;20380;-69
2022/03/27 10:10:15;;;;;;;15.63;9.60;;;;;;;14.05;44.10;97786.03;5054677;28;20391;-71
2022/03/27 10:12:43;;;;;;;16.58;9.98;;;;;;;14.21;43.95;97781.97;5072897;28;20379;-70
2022/03/27 10:15:14;;;;;;;16.98;9.45;;;;;;;14.31;43.76;97775.13;5072648;28;20379;-70
2022/03/27 10:17:43;;;;;;;17.38;9.73;;;;;;;14.20;43.40;97769.81;5053903;28;20391;-69
2022/03/27 10:20:10;;;;;;;18.77;9.98;;;;;;;14.32;43.55;97771.44;5071828;28;20383;-70
2022/03/27 10:22:39;;;;;;;16.83;10.00;;;;;;;14.44;43.42;97777.56;5053823;28;20399;-69
2022/03/27 10:25:08;;;;;;;15.27;9.30;;;;;;;14.51;43.42;97762.47;5056383;28;20386;-70
2022/03/27 10:27:38;;;;;;;19.47;10.00;;;;;;;14.53;43.31;97759.59;5091993;28;20419;-70
2022/03/27 10:30:06;;;;;;;18.13;9.98;;;;;;;14.54;42.95;97761.97;5074656;28;20461;-70
2022/03/27 10:32:33;;;;;;;15.95;9.35;;;;;;;14.57;42.48;97758.91;5091831;28;20382;-70
2022/03/27 10:35:17;;;;;;;17.83;9.75;;;;;;;14.93;43.01;97751.81;5092244;28;20854;-71
2022/03/27 10:37:59;;;;;;;16.25;10.43;;;;;;;14.96;42.46;97754.78;5091403;28;20497;-70
2022/03/27 10:40:43;;;;;;;17.20;9.55;;;;;;;15.02;41.82;97752.25;5092035;28;20458;-71
2022/03/27 10:43:17;;;;;;;17.00;10.07;;;;;;;14.99;41.94;97751.69;5092029;28;20370;-71
2022/03/27 10:45:43;;;;;;;17.35;9.75;;;;;;;14.82;41.75;97750.00;5091924;28;20436;-70
2022/03/27 10:48:15;;;;;;;16.30;9.50;;;;;;;14.94;42.03;97735.72;5074036;28;20735;-71
2022/03/27 10:50:58;;;;;;;17.35;9.60;;;;;;;15.24;40.97;97743.50;5078932;28;20847;-73
2022/03/27 10:53:26;;;;;;;16.08;10.13;;;;;;;15.48;41.26;97738.19;5072014;28;20484;-70
2022/03/27 10:55:53;;;;;;;14.88;9.25;;;;;;;15.17;41.70;97744.66;5071504;28;20641;-70
2022/03/27 10:58:33;;;;;;;15.83;9.60;;;;;;;14.97;41.76;97740.56;5071620;28;20225;-69
2022/03/27 11:01:21;;;;;;;16.60;9.80;;;;;;;15.28;41.54;97738.56;5071239;28;20166;-70
2022/03/27 11:04:06;;;;;;;17.10;9.67;;;;;;;15.30;41.33;97742.59;5072518;28;20189;-69
2022/03/27 11:06:37;;;;;;;17.10;8.97;;;;;;;15.61;41.15;97738.72;5054594;28;20180;-70
2022/03/27 11:09:09;;;;;;;17.63;9.07;;;;;;;15.69;40.56;97732.28;5073115;28;20647;-69
2022/03/27 11:11:37;;;;;;;20.73;9.57;;;;;;;15.39;40.63;97727.16;5072882;28;20264;-69
2022/03/27 11:14:04;;;;;;;14.13;8.60;;;;;;;15.32;40.92;97726.50;5072354;28;20177;-70
2022/03/27 11:16:30;;;;;;;16.03;8.50;;;;;;;15.52;40.58;97719.00;5054860;28;20181;-70
2022/03/27 11:18:56;;;;;;;16.60;8.53;;;;;;;15.51;40.60;97720.00;5072093;28;20259;-70
2022/03/27 11:21:27;;;;;;;19.90;9.37;;;;;;;15.70;39.67;97716.19;5072134;28;20235;-69
2022/03/27 11:24:02;;;;;;;14.50;8.70;;;;;;;15.76;39.17;97712.63;5054541;28;20185;-69
2022/03/27 11:26:29;;;;;;;14.87;9.00;;;;;;;16.18;38.92;97707.78;5071846;28;20418;-70
2022/03/27 11:29:04;;;;;;;17.80;8.87;;;;;;;16.13;39.08;97712.19;5072558;28;20204;-69
2022/03/27 11:31:32;;;;;;;16.57;8.67;;;;;;;15.86;39.12;97711.19;5071797;28;20688;-70
2022/03/27 11:34:14;;;;;;;13.73;8.77;;;;;;;15.98;38.88;97704.81;5072767;28;20226;-70